sensor_id;sensor_type;location;lat;lon;timestamp;pressure;altitude;pressure_sealevel;temperature;humidity
49979;BME280;35869;50.990;6.962;2023-03-25T00:03:12;100187.69;;;9.56;89.63
49979;BME280;35869;50.990;6.962;2023-03-25T00:08:12;100182.56;;;9.55;87.82
49979;BME280;35869;50.990;6.962;2023-03-25T00:13:12;100180.06;;;9.53;88.74
49979;BME280;35869;50.990;6.962;2023-03-25T00:18:13;100183.56;;;9.52;87.65
49979;BME280;35869;50.990;6.962;2023-03-25T00:23:15;100171.81;;;9.45;87.58
49979;BME280;35869;50.990;6.962;2023-03-25T00:28:15;100176.84;;;9.48;88.05
49979;BME280;35869;50.990;6.962;2023-03-25T00:33:15;100176.16;;;9.45;88.49
49979;BME280;35869;50.990;6.962;2023-03-25T00:38:15;100176.16;;;9.45;86.35
49979;BME280;35869;50.990;6.962;2023-03-25T00:43:16;100169.28;;;9.44;87.83
49979;BME280;35869;50.990;6.962;2023-03-25T00:48:16;100170.16;;;9.25;88.93
49979;BME280;35869;50.990;6.962;2023-03-25T00:53:16;100179.88;;;9.39;87.89
49979;BME280;35869;50.990;6.962;2023-03-25T00:58:16;100171.78;;;9.28;88.14
49979;BME280;35869;50.990;6.962;2023-03-25T01:03:16;100165.13;;;9.22;88.39
49979;BME280;35869;50.990;6.962;2023-03-25T01:08:17;100172.69;;;9.27;87.97
49979;BME280;35869;50.990;6.962;2023-03-25T01:13:17;100170.97;;;9.45;86.07
49979;BME280;35869;50.990;6.962;2023-03-25T01:18:17;100165.75;;;9.27;86.93
49979;BME280;35869;50.990;6.962;2023-03-25T01:23:17;100165.47;;;9.33;87.43
49979;BME280;35869;50.990;6.962;2023-03-25T01:28:17;100167.28;;;9.31;86.82
49979;BME280;35869;50.990;6.962;2023-03-25T01:33:18;100165.97;;;9.23;89.04
49979;BME280;35869;50.990;6.962;2023-03-25T01:38:18;100161.84;;;9.19;88.16
49979;BME280;35869;50.990;6.962;2023-03-25T01:43:19;100157.56;;;9.18;88.66
49979;BME280;35869;50.990;6.962;2023-03-25T01:48:30;100147.59;;;9.27;86.02
49979;BME280;35869;50.990;6.962;2023-03-25T01:53:33;100147.16;;;9.37;86.96
49979;BME280;35869;50.990;6.962;2023-03-25T01:58:34;100146.28;;;9.19;86.33
49979;BME280;35869;50.990;6.962;2023-03-25T02:03:35;100140.41;;;9.15;87.93
49979;BME280;35869;50.990;6.962;2023-03-25T02:08:37;100147.06;;;9.02;89.52
49979;BME280;35869;50.990;6.962;2023-03-25T02:13:40;100123.22;;;9.13;91.49
49979;BME280;35869;50.990;6.962;2023-03-25T02:29:28;100143.84;;;9.16;92.85
49979;BME280;35869;50.990;6.962;2023-03-25T02:39:55;100136.78;;;9.00;93.73
49979;BME280;35869;50.990;6.962;2023-03-25T02:45:09;100134.69;;;8.90;94.17
49979;BME280;35869;50.990;6.962;2023-03-25T02:50:21;100141.53;;;8.91;95.30
49979;BME280;35869;50.990;6.962;2023-03-25T02:55:26;100140.09;;;8.66;97.22
49979;BME280;35869;50.990;6.962;2023-03-25T03:00:28;100131.25;;;8.89;95.61
49979;BME280;35869;50.990;6.962;2023-03-25T03:05:29;100140.78;;;8.89;95.68
49979;BME280;35869;50.990;6.962;2023-03-25T03:10:39;100133.66;;;8.75;95.35
49979;BME280;35869;50.990;6.962;2023-03-25T03:16:10;100128.81;;;8.86;94.21
49979;BME280;35869;50.990;6.962;2023-03-25T03:21:18;100121.06;;;8.86;93.45
49979;BME280;35869;50.990;6.962;2023-03-25T03:26:26;100125.38;;;8.67;94.23
49979;BME280;35869;50.990;6.962;2023-03-25T03:36:50;100122.03;;;8.65;95.04
49979;BME280;35869;50.990;6.962;2023-03-25T03:41:55;100127.94;;;8.68;92.65
49979;BME280;35869;50.990;6.962;2023-03-25T03:47:04;100127.00;;;8.69;93.49
49979;BME280;35869;50.990;6.962;2023-03-25T03:52:14;100134.13;;;8.83;92.97
49979;BME280;35869;50.990;6.962;2023-03-25T03:57:35;100131.06;;;8.75;92.76
49979;BME280;35869;50.990;6.962;2023-03-25T04:02:40;100140.38;;;8.79;91.65
49979;BME280;35869;50.990;6.962;2023-03-25T04:07:46;100147.75;;;8.69;92.30
49979;BME280;35869;50.990;6.962;2023-03-25T04:12:51;100148.03;;;8.63;91.94
49979;BME280;35869;50.990;6.962;2023-03-25T04:17:51;100133.03;;;8.70;91.25
49979;BME280;35869;50.990;6.962;2023-03-25T04:22:52;100143.88;;;8.59;92.07
49979;BME280;35869;50.990;6.962;2023-03-25T04:27:52;100144.28;;;8.50;92.16
49979;BME280;35869;50.990;6.962;2023-03-25T04:32:53;100146.75;;;8.53;91.69
49979;BME280;35869;50.990;6.962;2023-03-25T04:37:53;100150.44;;;8.47;92.32
49979;BME280;35869;50.990;6.962;2023-03-25T04:42:53;100153.69;;;8.52;91.37
49979;BME280;35869;50.990;6.962;2023-03-25T04:47:53;100149.34;;;8.53;90.80
49979;BME280;35869;50.990;6.962;2023-03-25T04:52:54;100152.41;;;8.61;90.81
49979;BME280;35869;50.990;6.962;2023-03-25T04:57:55;100135.34;;;8.57;90.58
49979;BME280;35869;50.990;6.962;2023-03-25T05:02:55;100145.06;;;8.52;90.07
49979;BME280;35869;50.990;6.962;2023-03-25T05:07:55;100136.19;;;8.58;90.59
49979;BME280;35869;50.990;6.962;2023-03-25T05:13:00;100135.91;;;8.64;89.08
49979;BME280;35869;50.990;6.962;2023-03-25T05:18:00;100131.00;;;8.58;89.93
49979;BME280;35869;50.990;6.962;2023-03-25T05:23:01;100143.44;;;8.49;90.70
49979;BME280;35869;50.990;6.962;2023-03-25T05:28:01;100142.47;;;8.71;89.03
49979;BME280;35869;50.990;6.962;2023-03-25T05:33:01;100145.16;;;8.50;89.29
49979;BME280;35869;50.990;6.962;2023-03-25T05:38:03;100149.91;;;8.60;87.50
49979;BME280;35869;50.990;6.962;2023-03-25T05:43:03;100148.50;;;8.52;90.07
49979;BME280;35869;50.990;6.962;2023-03-25T05:48:03;100140.56;;;8.55;89.01
49979;BME280;35869;50.990;6.962;2023-03-25T05:53:04;100141.50;;;8.54;90.01
49979;BME280;35869;50.990;6.962;2023-03-25T05:58:04;100135.66;;;8.49;90.22
49979;BME280;35869;50.990;6.962;2023-03-25T06:03:06;100147.81;;;8.68;89.28
49979;BME280;35869;50.990;6.962;2023-03-25T06:08:06;100147.22;;;8.61;89.40
49979;BME280;35869;50.990;6.962;2023-03-25T06:13:06;100146.47;;;8.59;89.77
49979;BME280;35869;50.990;6.962;2023-03-25T06:18:07;100152.63;;;8.75;88.67
49979;BME280;35869;50.990;6.962;2023-03-25T06:23:07;100149.91;;;8.60;92.21
49979;BME280;35869;50.990;6.962;2023-03-25T06:28:07;100140.53;;;8.76;89.64
49979;BME280;35869;50.990;6.962;2023-03-25T06:33:07;100156.53;;;8.65;92.46
49979;BME280;35869;50.990;6.962;2023-03-25T06:38:08;100152.47;;;8.60;92.03
49979;BME280;35869;50.990;6.962;2023-03-25T06:43:09;100160.25;;;8.60;91.81
49979;BME280;35869;50.990;6.962;2023-03-25T06:48:09;100161.94;;;8.61;91.45
49979;BME280;35869;50.990;6.962;2023-03-25T06:53:09;100168.75;;;8.63;91.40
49979;BME280;35869;50.990;6.962;2023-03-25T06:58:10;100157.31;;;8.67;92.12
49979;BME280;35869;50.990;6.962;2023-03-25T07:03:11;100182.53;;;8.64;90.59
49979;BME280;35869;50.990;6.962;2023-03-25T07:08:11;100176.50;;;8.63;93.26
49979;BME280;35869;50.990;6.962;2023-03-25T07:13:12;100178.53;;;8.57;93.59
49979;BME280;35869;50.990;6.962;2023-03-25T07:18:12;100173.56;;;8.71;94.18
49979;BME280;35869;50.990;6.962;2023-03-25T07:23:12;100181.97;;;8.76;92.80
49979;BME280;35869;50.990;6.962;2023-03-25T07:28:12;100187.91;;;8.78;92.50
49979;BME280;35869;50.990;6.962;2023-03-25T07:33:13;100187.59;;;8.86;93.87
49979;BME280;35869;50.990;6.962;2023-03-25T07:38:13;100185.59;;;8.91;93.67
49979;BME280;35869;50.990;6.962;2023-03-25T07:43:13;100182.81;;;8.95;92.78
49979;BME280;35869;50.990;6.962;2023-03-25T07:48:14;100185.75;;;9.06;91.83
49979;BME280;35869;50.990;6.962;2023-03-25T07:53:14;100175.53;;;9.03;92.50
49979;BME280;35869;50.990;6.962;2023-03-25T07:58:14;100190.38;;;9.00;94.16
49979;BME280;35869;50.990;6.962;2023-03-25T08:03:14;100203.31;;;9.19;91.35
49979;BME280;35869;50.990;6.962;2023-03-25T08:08:15;100200.75;;;9.00;92.99
49979;BME280;35869;50.990;6.962;2023-03-25T08:13:15;100207.88;;;9.14;92.69
49979;BME280;35869;50.990;6.962;2023-03-25T08:18:15;100204.94;;;9.21;90.78
49979;BME280;35869;50.990;6.962;2023-03-25T08:23:16;100216.84;;;9.06;91.93
49979;BME280;35869;50.990;6.962;2023-03-25T08:28:18;100244.03;;;9.17;91.68
49979;BME280;35869;50.990;6.962;2023-03-25T08:33:19;100242.38;;;9.16;90.48
49979;BME280;35869;50.990;6.962;2023-03-25T08:38:20;100247.03;;;9.07;89.93
49979;BME280;35869;50.990;6.962;2023-03-25T08:43:20;100239.53;;;9.20;91.74
49979;BME280;35869;50.990;6.962;2023-03-25T08:48:20;100244.59;;;9.23;90.38
49979;BME280;35869;50.990;6.962;2023-03-25T08:53:21;100227.63;;;9.35;88.59
49979;BME280;35869;50.990;6.962;2023-03-25T08:58:22;100237.88;;;9.55;86.64
49979;BME280;35869;50.990;6.962;2023-03-25T09:03:23;100234.63;;;9.52;88.98
49979;BME280;35869;50.990;6.962;2023-03-25T09:08:24;100237.56;;;9.44;89.17
49979;BME280;35869;50.990;6.962;2023-03-25T09:13:24;100231.94;;;9.53;87.54
49979;BME280;35869;50.990;6.962;2023-03-25T09:18:24;100238.97;;;9.51;86.74
49979;BME280;35869;50.990;6.962;2023-03-25T09:23:25;100233.31;;;9.60;86.64
49979;BME280;35869;50.990;6.962;2023-03-25T09:28:25;100233.09;;;9.65;86.27
49979;BME280;35869;50.990;6.962;2023-03-25T09:33:25;100241.63;;;9.50;85.50
49979;BME280;35869;50.990;6.962;2023-03-25T09:38:26;100242.97;;;9.76;85.86
49979;BME280;35869;50.990;6.962;2023-03-25T09:48:45;100233.47;;;9.57;85.17
49979;BME280;35869;50.990;6.962;2023-03-25T09:54:02;100240.81;;;9.84;83.89
49979;BME280;35869;50.990;6.962;2023-03-25T09:59:17;100248.47;;;9.87;82.95
49979;BME280;35869;50.990;6.962;2023-03-25T10:14:45;100245.81;;;10.06;82.36
49979;BME280;35869;50.990;6.962;2023-03-25T10:25:02;100247.03;;;10.16;81.73
49979;BME280;35869;50.990;6.962;2023-03-25T10:35:17;100257.97;;;10.23;80.24
49979;BME280;35869;50.990;6.962;2023-03-25T10:40:29;100269.69;;;9.95;81.67
49979;BME280;35869;50.990;6.962;2023-03-25T10:45:31;100271.25;;;10.17;81.17
49979;BME280;35869;50.990;6.962;2023-03-25T10:50:32;100250.81;;;10.28;80.49
49979;BME280;35869;50.990;6.962;2023-03-25T10:55:34;100258.38;;;10.50;79.63
49979;BME280;35869;50.990;6.962;2023-03-25T11:00:35;100262.03;;;10.46;78.40
49979;BME280;35869;50.990;6.962;2023-03-25T11:05:35;100276.78;;;10.28;79.65
49979;BME280;35869;50.990;6.962;2023-03-25T11:10:35;100282.81;;;10.46;77.46
49979;BME280;35869;50.990;6.962;2023-03-25T11:15:37;100279.81;;;10.36;78.61
49979;BME280;35869;50.990;6.962;2023-03-25T11:20:44;100262.91;;;10.95;78.75
49979;BME280;35869;50.990;6.962;2023-03-25T11:25:45;100278.03;;;11.04;79.29
49979;BME280;35869;50.990;6.962;2023-03-25T11:31:04;100265.03;;;11.04;79.22
49979;BME280;35869;50.990;6.962;2023-03-25T11:36:27;100259.56;;;10.93;78.62
49979;BME280;35869;50.990;6.962;2023-03-25T11:41:34;100271.53;;;10.95;78.72
49979;BME280;35869;50.990;6.962;2023-03-25T11:46:41;100252.09;;;11.18;78.35
49979;BME280;35869;50.990;6.962;2023-03-25T11:51:42;100251.50;;;11.13;79.35
49979;BME280;35869;50.990;6.962;2023-03-25T11:56:43;100250.34;;;11.35;77.78
49979;BME280;35869;50.990;6.962;2023-03-25T12:01:48;100255.38;;;11.06;77.64
49979;BME280;35869;50.990;6.962;2023-03-25T12:17:09;100251.94;;;11.06;75.17
49979;BME280;35869;50.990;6.962;2023-03-25T12:22:34;100246.81;;;11.36;75.23
49979;BME280;35869;50.990;6.962;2023-03-25T12:27:50;100228.69;;;11.18;75.26
49979;BME280;35869;50.990;6.962;2023-03-25T12:33:12;100243.63;;;11.46;73.63
49979;BME280;35869;50.990;6.962;2023-03-25T12:59:30;100194.66;;;11.85;69.46
49979;BME280;35869;50.990;6.962;2023-03-25T13:20:03;100203.63;;;12.23;69.25
49979;BME280;35869;50.990;6.962;2023-03-25T13:25:06;100199.03;;;11.98;67.01
49979;BME280;35869;50.990;6.962;2023-03-25T13:30:16;100197.28;;;12.13;67.05
49979;BME280;35869;50.990;6.962;2023-03-25T13:35:41;100211.16;;;11.84;69.70
49979;BME280;35869;50.990;6.962;2023-03-25T13:40:51;100241.50;;;11.69;74.36
49979;BME280;35869;50.990;6.962;2023-03-25T13:46:11;100238.91;;;11.85;77.78
49979;BME280;35869;50.990;6.962;2023-03-25T13:51:12;100320.03;;;11.61;80.44
49979;BME280;35869;50.990;6.962;2023-03-25T14:01:37;100306.25;;;11.28;85.76
49979;BME280;35869;50.990;6.962;2023-03-25T14:12:14;100310.75;;;11.08;88.68
49979;BME280;35869;50.990;6.962;2023-03-25T14:17:16;100296.66;;;11.12;87.82
49979;BME280;35869;50.990;6.962;2023-03-25T14:22:21;100289.53;;;10.83;90.85
49979;BME280;35869;50.990;6.962;2023-03-25T14:27:25;100288.75;;;10.98;89.88
49979;BME280;35869;50.990;6.962;2023-03-25T14:32:31;100270.69;;;10.79;91.92
49979;BME280;35869;50.990;6.962;2023-03-25T14:37:32;100276.88;;;10.77;92.20
49979;BME280;35869;50.990;6.962;2023-03-25T14:48:22;100271.06;;;10.72;92.45
49979;BME280;35869;50.990;6.962;2023-03-25T14:53:25;100272.78;;;10.88;92.14
49979;BME280;35869;50.990;6.962;2023-03-25T14:58:26;100258.91;;;11.05;91.08
49979;BME280;35869;50.990;6.962;2023-03-25T15:03:33;100255.28;;;11.08;90.91
49979;BME280;35869;50.990;6.962;2023-03-25T15:08:37;100249.69;;;11.15;87.72
49979;BME280;35869;50.990;6.962;2023-03-25T15:13:41;100263.63;;;11.14;87.93
49979;BME280;35869;50.990;6.962;2023-03-25T15:23:46;100303.72;;;10.60;90.42
49979;BME280;35869;50.990;6.962;2023-03-25T15:44:54;100278.06;;;10.54;92.80
49979;BME280;35869;50.990;6.962;2023-03-25T15:55:07;100258.56;;;10.62;93.96
49979;BME280;35869;50.990;6.962;2023-03-25T16:00:29;100246.50;;;10.61;92.02
49979;BME280;35869;50.990;6.962;2023-03-25T16:05:33;100249.31;;;10.57;91.91
49979;BME280;35869;50.990;6.962;2023-03-25T16:10:35;100250.31;;;10.54;92.01
49979;BME280;35869;50.990;6.962;2023-03-25T16:15:35;100278.59;;;10.26;92.16
49979;BME280;35869;50.990;6.962;2023-03-25T16:20:36;100294.03;;;10.29;94.49
49979;BME280;35869;50.990;6.962;2023-03-25T16:25:40;100276.63;;;10.31;97.77
49979;BME280;35869;50.990;6.962;2023-03-25T16:30:42;100257.97;;;10.23;98.06
49979;BME280;35869;50.990;6.962;2023-03-25T16:35:44;100254.91;;;10.14;98.98
49979;BME280;35869;50.990;6.962;2023-03-25T16:40:45;100257.34;;;10.18;97.93
49979;BME280;35869;50.990;6.962;2023-03-25T16:45:47;100254.22;;;10.11;97.63
49979;BME280;35869;50.990;6.962;2023-03-25T16:50:48;100262.25;;;10.24;94.96
49979;BME280;35869;50.990;6.962;2023-03-25T17:01:14;100302.00;;;10.07;95.49
49979;BME280;35869;50.990;6.962;2023-03-25T17:06:21;100372.72;;;9.76;96.50
49979;BME280;35869;50.990;6.962;2023-03-25T17:11:28;100341.25;;;9.65;98.41
49979;BME280;35869;50.990;6.962;2023-03-25T17:16:31;100325.25;;;9.74;97.65
49979;BME280;35869;50.990;6.962;2023-03-25T17:21:32;100338.22;;;9.74;96.83
49979;BME280;35869;50.990;6.962;2023-03-25T17:26:47;100331.63;;;9.67;94.76
49979;BME280;35869;50.990;6.962;2023-03-25T17:31:55;100347.78;;;9.73;93.52
49979;BME280;35869;50.990;6.962;2023-03-25T17:36:58;100364.75;;;9.61;95.86
49979;BME280;35869;50.990;6.962;2023-03-25T17:42:06;100358.00;;;9.57;95.42
49979;BME280;35869;50.990;6.962;2023-03-25T17:47:15;100360.06;;;9.51;96.12
49979;BME280;35869;50.990;6.962;2023-03-25T17:52:16;100362.94;;;9.45;97.40
49979;BME280;35869;50.990;6.962;2023-03-25T17:57:18;100372.75;;;9.38;95.20
49979;BME280;35869;50.990;6.962;2023-03-25T18:02:18;100444.06;;;9.28;96.84
49979;BME280;35869;50.990;6.962;2023-03-25T18:07:18;100463.63;;;8.94;97.96
49979;BME280;35869;50.990;6.962;2023-03-25T18:12:18;100434.66;;;8.85;98.49
49979;BME280;35869;50.990;6.962;2023-03-25T18:17:19;100405.19;;;9.07;97.27
49979;BME280;35869;50.990;6.962;2023-03-25T18:22:19;100423.09;;;8.93;98.15
49979;BME280;35869;50.990;6.962;2023-03-25T18:27:19;100405.84;;;8.92;96.29
49979;BME280;35869;50.990;6.962;2023-03-25T18:32:19;100423.59;;;8.81;96.63
49979;BME280;35869;50.990;6.962;2023-03-25T18:37:20;100441.19;;;8.73;98.24
49979;BME280;35869;50.990;6.962;2023-03-25T18:42:20;100452.09;;;8.39;100.00
49979;BME280;35869;50.990;6.962;2023-03-25T18:47:20;100470.63;;;8.26;100.00
49979;BME280;35869;50.990;6.962;2023-03-25T18:52:20;100466.25;;;8.28;100.00
49979;BME280;35869;50.990;6.962;2023-03-25T18:57:20;100456.78;;;8.51;98.95
49979;BME280;35869;50.990;6.962;2023-03-25T19:02:21;100441.78;;;8.37;99.53
49979;BME280;35869;50.990;6.962;2023-03-25T19:07:21;100448.06;;;8.30;100.00
49979;BME280;35869;50.990;6.962;2023-03-25T19:12:21;100458.72;;;8.46;98.83
49979;BME280;35869;50.990;6.962;2023-03-25T19:17:21;100455.78;;;8.32;100.00
49979;BME280;35869;50.990;6.962;2023-03-25T19:22:21;100456.75;;;8.29;98.96
49979;BME280;35869;50.990;6.962;2023-03-25T19:27:22;100453.50;;;8.24;99.29
49979;BME280;35869;50.990;6.962;2023-03-25T19:32:22;100449.22;;;8.23;98.84
49979;BME280;35869;50.990;6.962;2023-03-25T19:37:22;100450.97;;;8.22;99.83
49979;BME280;35869;50.990;6.962;2023-03-25T19:42:22;100440.97;;;8.13;100.00
49979;BME280;35869;50.990;6.962;2023-03-25T19:47:22;100429.91;;;8.10;100.00
49979;BME280;35869;50.990;6.962;2023-03-25T19:52:23;100443.28;;;8.21;100.00
49979;BME280;35869;50.990;6.962;2023-03-25T19:57:23;100437.53;;;8.13;100.00
49979;BME280;35869;50.990;6.962;2023-03-25T20:02:24;100436.44;;;8.18;99.49
49979;BME280;35869;50.990;6.962;2023-03-25T20:07:24;100431.34;;;8.17;98.96
49979;BME280;35869;50.990;6.962;2023-03-25T20:12:25;100438.66;;;8.06;100.00
49979;BME280;35869;50.990;6.962;2023-03-25T20:17:25;100428.31;;;8.06;99.58
49979;BME280;35869;50.990;6.962;2023-03-25T20:22:25;100443.84;;;8.06;100.00
49979;BME280;35869;50.990;6.962;2023-03-25T20:27:26;100437.66;;;8.10;100.00
49979;BME280;35869;50.990;6.962;2023-03-25T20:32:27;100431.66;;;8.09;100.00
49979;BME280;35869;50.990;6.962;2023-03-25T20:37:27;100426.81;;;8.00;100.00
49979;BME280;35869;50.990;6.962;2023-03-25T20:42:27;100423.25;;;8.02;100.00
49979;BME280;35869;50.990;6.962;2023-03-25T20:47:27;100423.44;;;7.98;100.00
49979;BME280;35869;50.990;6.962;2023-03-25T20:52:27;100429.06;;;8.09;99.62
49979;BME280;35869;50.990;6.962;2023-03-25T20:57:28;100429.91;;;8.10;100.00
49979;BME280;35869;50.990;6.962;2023-03-25T21:02:28;100428.91;;;8.12;100.00
49979;BME280;35869;50.990;6.962;2023-03-25T21:07:30;100438.31;;;8.15;100.00
49979;BME280;35869;50.990;6.962;2023-03-25T21:12:30;100448.66;;;8.15;100.00
49979;BME280;35869;50.990;6.962;2023-03-25T21:17:30;100455.66;;;8.13;100.00
49979;BME280;35869;50.990;6.962;2023-03-25T21:22:31;100458.25;;;8.13;100.00
49979;BME280;35869;50.990;6.962;2023-03-25T21:27:31;100459.16;;;8.12;100.00
49979;BME280;35869;50.990;6.962;2023-03-25T21:32:32;100465.06;;;8.15;100.00
49979;BME280;35869;50.990;6.962;2023-03-25T21:37:32;100476.25;;;8.16;100.00
49979;BME280;35869;50.990;6.962;2023-03-25T21:42:32;100468.69;;;8.33;100.00
49979;BME280;35869;50.990;6.962;2023-03-25T21:47:33;100471.38;;;8.30;100.00
49979;BME280;35869;50.990;6.962;2023-03-25T21:52:34;100471.50;;;8.27;100.00
49979;BME280;35869;50.990;6.962;2023-03-25T21:57:34;100469.19;;;8.19;100.00
49979;BME280;35869;50.990;6.962;2023-03-25T22:02:35;100478.53;;;8.23;100.00
49979;BME280;35869;50.990;6.962;2023-03-25T22:07:35;100482.88;;;8.23;100.00
49979;BME280;35869;50.990;6.962;2023-03-25T22:12:35;100487.53;;;8.37;98.79
49979;BME280;35869;50.990;6.962;2023-03-25T22:17:36;100500.75;;;8.29;99.79
49979;BME280;35869;50.990;6.962;2023-03-25T22:22:36;100506.69;;;8.33;99.55
49979;BME280;35869;50.990;6.962;2023-03-25T22:27:36;100500.25;;;8.43;97.51
49979;BME280;35869;50.990;6.962;2023-03-25T22:32:36;100515.84;;;8.41;97.89
49979;BME280;35869;50.990;6.962;2023-03-25T22:37:36;100515.75;;;8.44;97.93
49979;BME280;35869;50.990;6.962;2023-03-25T22:42:37;100523.47;;;8.46;98.01
49979;BME280;35869;50.990;6.962;2023-03-25T22:47:37;100519.19;;;8.45;97.10
49979;BME280;35869;50.990;6.962;2023-03-25T22:52:40;100521.47;;;8.29;99.16
49979;BME280;35869;50.990;6.962;2023-03-25T22:57:40;100511.69;;;8.37;98.98
49979;BME280;35869;50.990;6.962;2023-03-25T23:02:41;100534.81;;;8.42;98.74
49979;BME280;35869;50.990;6.962;2023-03-25T23:07:41;100529.59;;;8.43;96.90
49979;BME280;35869;50.990;6.962;2023-03-25T23:12:41;100523.94;;;8.55;96.35
49979;BME280;35869;50.990;6.962;2023-03-25T23:17:41;100529.59;;;8.43;98.39
49979;BME280;35869;50.990;6.962;2023-03-25T23:22:41;100531.66;;;8.57;97.20
49979;BME280;35869;50.990;6.962;2023-03-25T23:27:42;100539.28;;;8.60;96.28
49979;BME280;35869;50.990;6.962;2023-03-25T23:32:42;100530.75;;;8.58;93.85
49979;BME280;35869;50.990;6.962;2023-03-25T23:37:42;100530.00;;;8.54;96.68
49979;BME280;35869;50.990;6.962;2023-03-25T23:42:42;100527.84;;;8.66;96.06
49979;BME280;35869;50.990;6.962;2023-03-25T23:47:42;100520.56;;;8.75;94.09
49979;BME280;35869;50.990;6.962;2023-03-25T23:52:43;100523.16;;;8.75;94.29
49979;BME280;35869;50.990;6.962;2023-03-25T23:57:43;100517.38;;;8.69;96.00
